Bath, Ohio
Current Conditions -  °F | °C
As of 7:54 PM on Tuesday 25 Nov 2014 (Local Time) from KAKR Reporting Station
Overcast Overcast  
Wind Chill: 27°   Ceiling: 2100
Heat Index: 35°   Visibility: 10mi
Dew Point: 27°   Wind: 10mph
Humidity: 72%   Direction: 280°W
Pressure: 30.17"   Gusts: NA
Location:  41.19°N, 81.64°W
Report Text: KAKR 260054Z AUTO 28009KT 10SM BKN021 OVC028 02/M03 A3017 RMK AO2 SLP224 T00171028
Loading
Personal Weather Stations






























Interactive Weather Map New forecast layout! Learn more

10-Day Weather Forecast

Advertisements
Track Severe Weather on mobile